createdAt,value
2023-05-21T00:00:17.867Z,8.23
2023-05-21T00:02:45.849Z,8.43
2023-05-21T00:05:15.563Z,8.17
2023-05-21T00:07:43.448Z,8.47
2023-05-21T00:10:11.915Z,8.10
2023-05-21T00:12:41.877Z,7.73
2023-05-21T00:15:10.721Z,8.40
2023-05-21T00:17:40.122Z,8.93
2023-05-21T00:20:10.137Z,8.67
2023-05-21T00:22:37.987Z,8.13
2023-05-21T00:25:08.105Z,8.77
2023-05-21T00:27:35.984Z,8.47
2023-05-21T00:30:06.021Z,7.70
2023-05-21T00:32:33.952Z,7.87
2023-05-21T00:35:01.904Z,8.33
2023-05-21T00:37:34.334Z,8.27
2023-05-21T00:40:02.785Z,7.90
2023-05-21T00:42:30.712Z,7.60
2023-05-21T00:44:58.721Z,7.97
2023-05-21T00:47:30.419Z,7.30
2023-05-21T00:49:58.321Z,7.77
2023-05-21T00:52:27.167Z,7.83
2023-05-21T00:54:55.203Z,7.63
2023-05-21T00:57:25.282Z,7.67
2023-05-21T00:59:54.384Z,7.50
2023-05-21T01:02:24.357Z,7.73
2023-05-21T01:04:56.026Z,7.83
2023-05-21T01:07:23.886Z,7.80
2023-05-21T01:09:51.748Z,7.77
2023-05-21T01:12:20.203Z,7.87
2023-05-21T01:14:48.465Z,7.63
2023-05-21T01:17:17.123Z,7.73
2023-05-21T01:19:45.902Z,7.87
2023-05-21T01:22:17.012Z,7.83
2023-05-21T01:24:48.325Z,7.67
2023-05-21T01:27:16.449Z,7.97
2023-05-21T01:29:44.345Z,7.67
2023-05-21T01:32:16.401Z,7.57
2023-05-21T01:34:49.365Z,7.93
2023-05-21T01:37:20.540Z,7.50
2023-05-21T01:39:54.802Z,8.20
2023-05-21T01:42:24.147Z,8.07
2023-05-21T01:44:53.279Z,7.50
2023-05-21T01:47:21.747Z,7.60
2023-05-21T01:49:49.847Z,7.63
2023-05-21T01:52:18.273Z,7.90
2023-05-21T01:54:46.170Z,7.60
2023-05-21T01:57:17.088Z,7.60
2023-05-21T01:59:45.625Z,7.30
2023-05-21T02:02:13.574Z,7.47
2023-05-21T02:04:41.944Z,7.97
2023-05-21T02:07:10.330Z,8.30
2023-05-21T02:09:38.527Z,7.73
2023-05-21T02:12:06.877Z,7.80
2023-05-21T02:14:36.289Z,8.20
2023-05-21T02:17:04.228Z,7.73
2023-05-21T02:19:32.137Z,7.73
2023-05-21T02:22:00.116Z,7.83
2023-05-21T02:24:28.018Z,7.80
2023-05-21T02:26:55.871Z,8.00
2023-05-21T02:29:23.719Z,8.90
2023-05-21T02:31:52.974Z,8.40
2023-05-21T02:34:20.972Z,7.67
2023-05-21T02:36:52.313Z,8.13
2023-05-21T02:39:20.224Z,8.20
2023-05-21T02:41:48.377Z,8.53
2023-05-21T02:44:16.868Z,9.20
2023-05-21T02:46:44.726Z,8.53
2023-05-21T02:49:13.972Z,8.47
2023-05-21T02:51:41.792Z,8.20
2023-05-21T02:54:09.653Z,8.40
2023-05-21T02:56:37.542Z,8.97
2023-05-21T02:59:05.412Z,8.70
2023-05-21T03:01:33.285Z,8.47
2023-05-21T03:04:01.234Z,8.70
2023-05-21T03:06:32.091Z,9.17
2023-05-21T03:08:59.981Z,8.70
2023-05-21T03:11:27.860Z,8.70
2023-05-21T03:13:55.736Z,8.43
2023-05-21T03:16:23.666Z,8.60
2023-05-21T03:18:51.631Z,8.53
2023-05-21T03:21:22.671Z,8.50
2023-05-21T03:23:53.122Z,8.00
2023-05-21T03:26:22.382Z,8.93
2023-05-21T03:28:50.364Z,8.30
2023-05-21T03:31:18.374Z,8.50
2023-05-21T03:33:46.219Z,8.93
2023-05-21T03:36:14.141Z,8.50
2023-05-21T03:38:42.016Z,8.80
2023-05-21T03:41:12.150Z,8.07
2023-05-21T03:43:40.086Z,8.13
2023-05-21T03:46:07.963Z,8.77
2023-05-21T03:48:35.989Z,8.60
2023-05-21T03:51:04.133Z,7.83
2023-05-21T03:53:32.201Z,8.90
2023-05-21T03:56:00.042Z,8.33
2023-05-21T03:58:29.324Z,7.80
2023-05-21T04:00:57.160Z,7.80
2023-05-21T04:03:25.121Z,8.27
2023-05-21T04:05:53.641Z,8.80
2023-05-21T04:08:21.512Z,8.27
2023-05-21T04:10:49.380Z,9.17
2023-05-21T04:13:17.355Z,8.53
2023-05-21T04:15:46.780Z,7.70
2023-05-21T04:18:16.587Z,7.97
2023-05-21T04:20:44.649Z,7.77
2023-05-21T04:23:12.677Z,7.80
2023-05-21T04:25:40.600Z,7.87
2023-05-21T04:28:08.436Z,8.10
2023-05-21T04:30:36.436Z,7.70
2023-05-21T04:33:05.694Z,8.07
2023-05-21T04:35:33.750Z,7.53
2023-05-21T04:38:04.150Z,7.83
2023-05-21T04:40:32.844Z,7.90
2023-05-21T04:43:04.744Z,7.30
2023-05-21T04:45:32.884Z,7.57
2023-05-21T04:48:01.129Z,7.63
2023-05-21T04:50:30.932Z,6.90
2023-05-21T04:52:59.929Z,7.77
2023-05-21T04:55:29.016Z,7.20
2023-05-21T04:57:57.474Z,7.17
2023-05-21T05:00:26.228Z,7.50
2023-05-21T05:02:54.223Z,7.87
2023-05-21T05:05:22.190Z,7.37
2023-05-21T05:07:51.452Z,7.70
2023-05-21T05:10:19.313Z,7.50
2023-05-21T05:12:47.131Z,8.60
2023-05-21T05:15:15.040Z,7.60
2023-05-21T05:17:43.054Z,8.00
2023-05-21T05:20:12.549Z,8.07
2023-05-21T05:22:40.436Z,6.70
2023-05-21T05:25:10.474Z,7.60
2023-05-21T05:27:38.728Z,7.80
2023-05-21T05:30:07.984Z,8.07
2023-05-21T05:32:35.874Z,6.70
2023-05-21T05:35:04.228Z,7.73
2023-05-21T05:37:33.638Z,7.87
2023-05-21T05:40:01.563Z,7.63
2023-05-21T05:42:30.810Z,7.77
2023-05-21T05:45:00.042Z,7.73
2023-05-21T05:47:29.995Z,8.50
2023-05-21T05:49:57.852Z,7.90
2023-05-21T05:52:25.685Z,7.53
2023-05-21T05:54:53.579Z,7.87
2023-05-21T05:57:21.459Z,7.70
2023-05-21T05:59:50.766Z,7.43
2023-05-21T06:02:18.743Z,7.83
2023-05-21T06:04:46.633Z,8.20
2023-05-21T06:07:14.487Z,8.07
2023-05-21T06:09:42.368Z,7.10
2023-05-21T06:12:12.269Z,7.50
2023-05-21T06:14:44.890Z,7.93
2023-05-21T06:17:14.542Z,7.57
2023-05-21T06:19:42.354Z,7.83
2023-05-21T06:22:10.235Z,8.30
2023-05-21T06:24:38.048Z,7.80
2023-05-21T06:27:06.206Z,7.53
2023-05-21T06:29:34.092Z,7.70
2023-05-21T06:32:02.782Z,7.23
2023-05-21T06:34:32.040Z,7.87
2023-05-21T06:36:59.893Z,7.33
2023-05-21T06:39:28.212Z,7.70
2023-05-21T06:41:56.124Z,8.20
2023-05-21T06:44:24.035Z,7.20
2023-05-21T06:46:51.979Z,7.97
2023-05-21T06:49:19.826Z,7.37
2023-05-21T06:51:49.092Z,7.40
2023-05-21T06:54:16.914Z,7.53
2023-05-21T06:56:44.796Z,7.47
2023-05-21T06:59:14.270Z,7.70
2023-05-21T07:01:44.167Z,7.37
2023-05-21T07:04:14.902Z,7.17
2023-05-21T07:06:42.805Z,7.77
2023-05-21T07:09:12.148Z,7.63
2023-05-21T07:11:40.177Z,7.43
2023-05-21T07:14:10.137Z,7.77
2023-05-21T07:16:39.193Z,8.10
2023-05-21T07:19:07.109Z,7.77
2023-05-21T07:21:35.001Z,7.90
2023-05-21T07:24:03.059Z,7.87
2023-05-21T07:26:32.321Z,8.23
2023-05-21T07:29:00.215Z,7.87
2023-05-21T07:31:28.149Z,8.23
2023-05-21T07:33:56.123Z,8.77
2023-05-21T07:36:24.019Z,7.70
2023-05-21T07:38:52.003Z,8.87
2023-05-21T07:41:19.852Z,8.13
2023-05-21T07:43:49.341Z,7.67
2023-05-21T07:46:17.231Z,7.67
2023-05-21T07:48:48.427Z,7.20
2023-05-21T07:51:16.577Z,8.30
2023-05-21T07:53:44.477Z,8.87
2023-05-21T07:56:12.337Z,8.80
2023-05-21T07:58:40.626Z,7.80
2023-05-21T08:01:09.996Z,9.10
2023-05-21T08:03:38.018Z,7.57
2023-05-21T08:06:06.057Z,7.73
2023-05-21T08:08:33.995Z,8.10
2023-05-21T08:11:01.977Z,6.77
2023-05-21T08:13:29.849Z,7.80
2023-05-21T08:15:59.743Z,7.93
2023-05-21T08:18:28.990Z,8.47
2023-05-21T08:20:56.834Z,7.77
2023-05-21T08:23:24.656Z,8.00
2023-05-21T08:25:53.624Z,7.40
2023-05-21T08:28:23.378Z,7.90
2023-05-21T08:30:51.536Z,7.83
2023-05-21T08:33:21.086Z,7.60
2023-05-21T08:35:50.907Z,7.53
2023-05-21T08:38:18.780Z,7.50
2023-05-21T08:40:47.802Z,7.57
2023-05-21T08:43:16.589Z,7.20
2023-05-21T08:45:46.753Z,8.00
2023-05-21T08:48:17.528Z,7.37
2023-05-21T08:50:46.391Z,6.80
2023-05-21T08:53:27.143Z,6.63
2023-05-21T08:55:57.402Z,6.87
2023-05-21T08:58:25.597Z,7.07
2023-05-21T09:00:53.560Z,7.17
2023-05-21T09:03:22.525Z,7.60
2023-05-21T09:05:51.248Z,6.90
2023-05-21T09:08:22.992Z,7.33
2023-05-21T09:10:52.189Z,7.33
2023-05-21T09:13:21.325Z,6.90
2023-05-21T09:15:49.574Z,7.00
2023-05-21T09:18:17.475Z,8.00
2023-05-21T09:20:46.049Z,6.90
2023-05-21T09:23:16.986Z,7.33
2023-05-21T09:25:48.653Z,7.30
2023-05-21T09:28:17.309Z,7.43
2023-05-21T09:30:48.555Z,7.60
2023-05-21T09:33:26.106Z,6.67
2023-05-21T09:35:55.522Z,6.60
2023-05-21T09:38:23.682Z,5.73
2023-05-21T09:40:54.179Z,6.83
2023-05-21T09:43:22.925Z,5.80
2023-05-21T09:45:55.182Z,7.13
2023-05-21T09:48:38.516Z,6.20
2023-05-21T09:51:11.098Z,6.43
2023-05-21T09:53:44.555Z,6.33
2023-05-21T09:56:13.943Z,6.67
2023-05-21T09:58:41.859Z,6.30
2023-05-21T10:01:12.135Z,6.37
2023-05-21T10:03:40.995Z,6.50
2023-05-21T10:06:10.538Z,6.33
2023-05-21T10:08:43.140Z,6.60
2023-05-21T10:11:11.187Z,6.30
2023-05-21T10:13:47.356Z,5.80
2023-05-21T10:16:16.095Z,6.13
2023-05-21T10:18:46.416Z,6.50
2023-05-21T10:21:14.527Z,6.20
2023-05-21T10:23:43.078Z,6.33
2023-05-21T10:26:11.621Z,6.33
2023-05-21T10:28:41.229Z,6.30
2023-05-21T10:31:09.441Z,5.80
2023-05-21T10:33:37.977Z,6.40
2023-05-21T10:36:06.872Z,5.83
2023-05-21T10:38:35.382Z,6.27
2023-05-21T10:41:04.923Z,5.80
2023-05-21T10:43:54.573Z,5.70
2023-05-21T10:46:44.737Z,5.70
2023-05-21T10:49:25.483Z,5.80
2023-05-21T10:52:01.231Z,5.53
2023-05-21T10:54:43.076Z,6.87
2023-05-21T10:57:20.593Z,5.87
2023-05-21T10:59:49.933Z,5.60
2023-05-21T11:02:19.282Z,5.70
2023-05-21T11:04:49.178Z,6.00
2023-05-21T11:07:25.523Z,5.80
2023-05-21T11:09:53.394Z,5.87
2023-05-21T11:12:23.361Z,5.60
2023-05-21T11:14:58.963Z,5.77
2023-05-21T11:17:42.119Z,6.20
2023-05-21T11:20:13.604Z,6.50
2023-05-21T11:22:41.475Z,6.27
2023-05-21T11:25:09.883Z,5.67
2023-05-21T11:27:38.552Z,6.53
2023-05-21T11:30:09.286Z,5.53
2023-05-21T11:32:41.006Z,5.67
2023-05-21T11:35:09.530Z,5.80
2023-05-21T11:37:40.657Z,5.30
2023-05-21T11:40:18.854Z,5.90
2023-05-21T11:42:50.981Z,5.10
2023-05-21T11:45:21.884Z,5.80
2023-05-21T11:47:50.363Z,5.63
2023-05-21T11:50:18.615Z,5.43
2023-05-21T11:52:46.832Z,6.37
2023-05-21T11:55:15.811Z,5.50
2023-05-21T11:57:44.899Z,5.67
2023-05-21T12:00:17.327Z,6.63
2023-05-21T12:02:48.342Z,6.60
2023-05-21T12:05:16.424Z,6.17
2023-05-21T12:07:48.594Z,6.03
2023-05-21T12:10:16.532Z,5.70
2023-05-21T12:12:54.713Z,5.93
2023-05-21T12:15:26.579Z,5.73
2023-05-21T12:17:57.008Z,7.17
2023-05-21T12:20:28.104Z,6.03
2023-05-21T12:22:56.259Z,5.13
2023-05-21T12:25:24.195Z,5.37
2023-05-21T12:27:58.027Z,5.40
2023-05-21T12:30:26.742Z,6.53
2023-05-21T12:32:59.264Z,6.10
2023-05-21T12:35:27.342Z,5.83
2023-05-21T12:37:55.249Z,5.53
2023-05-21T12:40:23.100Z,5.80
2023-05-21T12:42:51.677Z,5.90
2023-05-21T12:45:22.826Z,5.73
2023-05-21T12:47:56.012Z,5.60
2023-05-21T12:50:25.691Z,6.43
2023-05-21T12:52:57.002Z,5.50
2023-05-21T12:55:25.842Z,5.83
2023-05-21T12:58:03.355Z,5.53
2023-05-21T13:00:31.504Z,5.60
2023-05-21T13:03:00.934Z,6.07
2023-05-21T13:05:30.264Z,5.77
2023-05-21T13:07:58.187Z,5.37
2023-05-21T13:10:26.131Z,6.07
2023-05-21T13:12:53.999Z,6.10
2023-05-21T13:15:21.987Z,5.60
2023-05-21T13:17:51.592Z,5.70
2023-05-21T13:20:21.987Z,5.60
2023-05-21T13:22:52.735Z,5.97
2023-05-21T13:25:22.226Z,6.23
2023-05-21T13:27:51.009Z,5.73
2023-05-21T13:30:19.339Z,6.00
2023-05-21T13:32:47.339Z,6.87
2023-05-21T13:35:16.940Z,5.87
2023-05-21T13:37:46.052Z,5.70
2023-05-21T13:40:17.883Z,5.57
2023-05-21T13:42:46.495Z,5.87
2023-05-21T13:45:15.945Z,6.27
2023-05-21T13:47:44.693Z,6.27
2023-05-21T13:50:13.440Z,5.87
2023-05-21T13:52:41.456Z,6.63
2023-05-21T13:55:11.110Z,6.73
2023-05-21T13:57:40.777Z,5.53
2023-05-21T14:00:12.597Z,6.00
2023-05-21T14:02:40.648Z,6.00
2023-05-21T14:05:09.167Z,5.80
2023-05-21T14:07:37.409Z,5.90
2023-05-21T14:10:05.954Z,5.50
2023-05-21T14:12:34.734Z,5.80
2023-05-21T14:15:04.111Z,6.30
2023-05-21T14:17:31.982Z,6.10
2023-05-21T14:19:59.931Z,7.33
2023-05-21T14:22:27.778Z,5.63
2023-05-21T14:24:56.152Z,5.63
2023-05-21T14:27:24.239Z,5.83
2023-05-21T14:29:52.105Z,5.70
2023-05-21T14:32:21.760Z,5.40
2023-05-21T14:34:49.786Z,5.70
2023-05-21T14:37:17.664Z,5.80
2023-05-21T14:39:45.664Z,5.77
2023-05-21T14:42:13.537Z,7.77
2023-05-21T14:44:41.407Z,6.23
2023-05-21T14:47:09.289Z,6.07
2023-05-21T14:49:38.560Z,5.67
2023-05-21T14:52:07.228Z,6.00
2023-05-21T14:54:35.226Z,5.67
2023-05-21T14:57:03.101Z,5.80
2023-05-21T14:59:31.006Z,5.43
2023-05-21T15:01:58.937Z,6.37
2023-05-21T15:04:26.852Z,5.63
2023-05-21T15:06:56.171Z,6.03
2023-05-21T15:09:24.022Z,5.90
2023-05-21T15:11:53.510Z,5.33
2023-05-21T15:14:21.533Z,5.57
2023-05-21T15:16:49.430Z,5.93
2023-05-21T15:19:17.421Z,6.00
2023-05-21T15:21:45.452Z,5.47
2023-05-21T15:24:14.714Z,5.47
2023-05-21T15:26:42.657Z,5.80
2023-05-21T15:29:10.531Z,5.73
2023-05-21T15:31:39.567Z,6.47
2023-05-21T15:34:07.573Z,5.23
2023-05-21T15:36:36.586Z,5.90
2023-05-21T15:39:06.070Z,6.00
2023-05-21T15:41:38.669Z,6.60
2023-05-21T15:44:06.580Z,5.67
2023-05-21T15:46:34.537Z,5.97
2023-05-21T15:49:02.403Z,6.37
2023-05-21T15:51:31.833Z,5.97
2023-05-21T15:54:00.056Z,5.70
2023-05-21T15:56:27.992Z,5.87
2023-05-21T15:59:00.015Z,5.17
2023-05-21T16:01:28.474Z,8.03
2023-05-21T16:03:56.642Z,5.90
2023-05-21T16:06:24.857Z,5.93
2023-05-21T16:08:52.710Z,6.23
2023-05-21T16:11:21.552Z,7.57
2023-05-21T16:13:49.574Z,7.13
2023-05-21T16:16:19.010Z,5.80
2023-05-21T16:18:47.104Z,6.13
2023-05-21T16:21:15.884Z,5.70
2023-05-21T16:23:43.839Z,5.83
2023-05-21T16:26:11.836Z,5.87
2023-05-21T16:28:39.676Z,6.23
2023-05-21T16:31:08.665Z,5.80
2023-05-21T16:33:39.152Z,5.67
2023-05-21T16:36:07.239Z,4.90
2023-05-21T16:38:35.164Z,5.20
2023-05-21T16:41:03.096Z,4.77
2023-05-21T16:43:30.944Z,5.20
2023-05-21T16:45:58.820Z,5.13
2023-05-21T16:48:27.020Z,5.03
2023-05-21T16:50:56.554Z,5.80
2023-05-21T16:53:24.490Z,5.27
2023-05-21T16:55:52.385Z,6.07
2023-05-21T16:58:20.270Z,7.40
2023-05-21T17:00:48.469Z,6.43
2023-05-21T17:03:16.636Z,5.50
2023-05-21T17:05:45.384Z,5.27
2023-05-21T17:08:14.669Z,6.00
2023-05-21T17:10:42.553Z,5.70
2023-05-21T17:13:21.667Z,5.70
2023-05-21T17:15:51.071Z,5.93
2023-05-21T17:18:19.079Z,5.70
2023-05-21T17:20:46.939Z,5.83
2023-05-21T17:23:16.299Z,8.00
2023-05-21T17:25:44.158Z,7.03
2023-05-21T17:28:13.563Z,6.20
2023-05-21T17:30:41.571Z,5.87
2023-05-21T17:33:10.330Z,6.07
2023-05-21T17:35:38.732Z,5.27
2023-05-21T17:38:07.112Z,5.63
2023-05-21T17:40:36.443Z,4.43
2023-05-21T17:43:05.251Z,5.40
2023-05-21T17:45:35.244Z,5.30
2023-05-21T17:48:03.467Z,4.67
2023-05-21T17:50:31.773Z,4.97
2023-05-21T17:53:00.447Z,5.60
2023-05-21T17:55:28.374Z,5.30
2023-05-21T17:57:57.721Z,5.47
2023-05-21T18:00:25.804Z,5.73
2023-05-21T18:02:53.778Z,6.93
2023-05-21T18:05:22.805Z,5.43
2023-05-21T18:07:50.876Z,5.53
2023-05-21T18:10:18.799Z,5.23
2023-05-21T18:12:47.025Z,5.57
2023-05-21T18:15:16.790Z,5.30
2023-05-21T18:17:44.900Z,5.03
2023-05-21T18:20:14.270Z,5.10
2023-05-21T18:22:42.242Z,5.30
2023-05-21T18:25:10.892Z,4.53
2023-05-21T18:27:38.794Z,5.40
2023-05-21T18:30:08.420Z,5.40
2023-05-21T18:32:39.498Z,5.33
2023-05-21T18:35:08.317Z,4.87
2023-05-21T18:37:37.313Z,5.70
2023-05-21T18:40:07.395Z,6.57
2023-05-21T18:42:35.276Z,5.57
2023-05-21T18:45:08.505Z,6.60
2023-05-21T18:47:39.351Z,5.60
2023-05-21T18:50:09.181Z,5.60
2023-05-21T18:52:37.042Z,5.60
2023-05-21T18:55:05.551Z,5.97
2023-05-21T18:57:34.804Z,5.60
2023-05-21T19:00:03.221Z,5.83
2023-05-21T19:02:31.351Z,5.13
2023-05-21T19:05:01.871Z,6.33
2023-05-21T19:07:29.970Z,7.33
2023-05-21T19:09:57.799Z,7.77
2023-05-21T19:12:25.682Z,8.37
2023-05-21T19:14:53.554Z,8.30
2023-05-21T19:17:24.233Z,8.20
2023-05-21T19:19:55.791Z,9.07
2023-05-21T19:22:26.594Z,7.07
2023-05-21T19:24:54.577Z,7.50
2023-05-21T19:27:22.780Z,7.10
2023-05-21T19:29:51.763Z,6.13
2023-05-21T19:32:20.759Z,7.67
2023-05-21T19:34:48.623Z,5.60
2023-05-21T19:37:16.736Z,6.10
2023-05-21T19:39:49.595Z,6.00
2023-05-21T19:42:18.162Z,5.77
2023-05-21T19:44:46.293Z,6.03
2023-05-21T19:47:14.297Z,5.87
2023-05-21T19:49:42.178Z,6.00
2023-05-21T19:52:10.586Z,6.83
2023-05-21T19:54:38.556Z,6.30
2023-05-21T19:57:09.098Z,6.37
2023-05-21T19:59:38.822Z,6.23
2023-05-21T20:02:06.975Z,6.50
2023-05-21T20:04:34.861Z,6.50
2023-05-21T20:07:02.739Z,6.50
2023-05-21T20:09:30.592Z,8.03
2023-05-21T20:11:58.419Z,6.50
2023-05-21T20:14:27.618Z,7.33
2023-05-21T20:16:58.586Z,6.00
2023-05-21T20:19:26.537Z,7.10
2023-05-21T20:21:54.872Z,7.83
2023-05-21T20:24:22.789Z,6.83
2023-05-21T20:26:50.673Z,7.13
2023-05-21T20:29:18.968Z,6.20
2023-05-21T20:31:48.238Z,7.90
2023-05-21T20:34:17.742Z,6.10
2023-05-21T20:36:45.613Z,5.93
2023-05-21T20:39:13.489Z,5.80
2023-05-21T20:41:44.764Z,6.30
2023-05-21T20:44:13.780Z,6.23
2023-05-21T20:46:41.697Z,6.27
2023-05-21T20:49:10.985Z,5.87
2023-05-21T20:51:38.876Z,6.67
2023-05-21T20:54:06.893Z,6.10
2023-05-21T20:56:42.113Z,5.80
2023-05-21T20:59:12.044Z,5.43
2023-05-21T21:01:40.733Z,6.63
2023-05-21T21:04:10.678Z,6.53
2023-05-21T21:06:40.421Z,6.23
2023-05-21T21:09:08.596Z,5.77
2023-05-21T21:11:36.961Z,6.23
2023-05-21T21:14:04.878Z,6.07
2023-05-21T21:16:32.930Z,6.10
2023-05-21T21:19:00.953Z,6.03
2023-05-21T21:21:30.222Z,5.93
2023-05-21T21:23:58.269Z,6.00
2023-05-21T21:26:27.105Z,5.80
2023-05-21T21:28:56.352Z,6.00
2023-05-21T21:31:25.033Z,5.63
2023-05-21T21:33:53.068Z,5.73
2023-05-21T21:36:21.138Z,5.57
2023-05-21T21:38:50.413Z,6.90
2023-05-21T21:41:20.319Z,6.30
2023-05-21T21:43:48.242Z,5.77
2023-05-21T21:46:16.506Z,5.77
2023-05-21T21:48:44.406Z,6.13
2023-05-21T21:51:12.625Z,6.70
2023-05-21T21:53:40.549Z,5.93
2023-05-21T21:56:09.885Z,6.47
2023-05-21T21:58:37.718Z,6.00
2023-05-21T22:01:05.839Z,5.90
2023-05-21T22:03:34.301Z,5.60
2023-05-21T22:06:02.336Z,6.53
2023-05-21T22:08:30.313Z,6.03
2023-05-21T22:10:58.886Z,6.60
2023-05-21T22:13:29.912Z,6.13
2023-05-21T22:15:58.046Z,6.33
2023-05-21T22:18:40.073Z,5.40
2023-05-21T22:21:09.696Z,5.50
2023-05-21T22:23:38.520Z,5.43
2023-05-21T22:26:06.575Z,5.90
2023-05-21T22:28:36.030Z,6.23
2023-05-21T22:31:04.099Z,5.80
2023-05-21T22:33:32.217Z,6.23
2023-05-21T22:36:00.057Z,6.53
2023-05-21T22:38:27.872Z,5.90
2023-05-21T22:40:55.776Z,6.07
2023-05-21T22:43:23.687Z,6.10
2023-05-21T22:45:52.899Z,5.73
2023-05-21T22:48:21.976Z,6.17
2023-05-21T22:50:50.214Z,6.23
2023-05-21T22:53:18.501Z,6.30
2023-05-21T22:55:46.394Z,5.83
2023-05-21T22:58:14.251Z,5.73
2023-05-21T23:00:42.118Z,5.97
2023-05-21T23:03:11.417Z,5.47
2023-05-21T23:05:39.446Z,5.97
2023-05-21T23:08:07.560Z,5.97
2023-05-21T23:10:35.542Z,5.60
2023-05-21T23:13:03.488Z,6.40
2023-05-21T23:15:31.364Z,6.20
2023-05-21T23:18:00.404Z,5.53
2023-05-21T23:20:29.798Z,5.50
2023-05-21T23:22:57.652Z,6.00
2023-05-21T23:25:25.466Z,5.40
2023-05-21T23:27:53.289Z,5.77
2023-05-21T23:30:21.176Z,5.57
2023-05-21T23:32:49.063Z,6.50
2023-05-21T23:35:17.473Z,5.77
2023-05-21T23:37:46.676Z,6.33
2023-05-21T23:40:14.658Z,5.83
2023-05-21T23:42:42.651Z,5.53
2023-05-21T23:45:11.247Z,6.07
2023-05-21T23:47:39.158Z,5.63
2023-05-21T23:50:08.465Z,5.93
2023-05-21T23:52:36.308Z,5.73
2023-05-21T23:55:06.017Z,5.97
2023-05-21T23:57:33.879Z,5.60
